sensor_id;sensor_type;location;lat;lon;timestamp;P1;durP1;ratioP1;P2;durP2;ratioP2
11604;SDS011;5858;43.076;25.626;2022-08-01T00:00:16;3.70;;;2.70;;
11604;SDS011;5858;43.076;25.626;2022-08-01T00:02:46;3.63;;;2.90;;
11604;SDS011;5858;43.076;25.626;2022-08-01T00:05:21;3.95;;;3.03;;
11604;SDS011;5858;43.076;25.626;2022-08-01T00:07:51;2.95;;;2.67;;
11604;SDS011;5858;43.076;25.626;2022-08-01T00:10:27;3.10;;;2.80;;
11604;SDS011;5858;43.076;25.626;2022-08-01T00:13:00;3.03;;;2.72;;
11604;SDS011;5858;43.076;25.626;2022-08-01T00:15:30;5.60;;;2.72;;
11604;SDS011;5858;43.076;25.626;2022-08-01T00:18:00;3.13;;;2.60;;
11604;SDS011;5858;43.076;25.626;2022-08-01T00:20:30;2.88;;;2.67;;
11604;SDS011;5858;43.076;25.626;2022-08-01T00:23:15;3.30;;;2.80;;
11604;SDS011;5858;43.076;25.626;2022-08-01T00:25:48;3.60;;;2.80;;
11604;SDS011;5858;43.076;25.626;2022-08-01T00:28:15;3.38;;;2.75;;
11604;SDS011;5858;43.076;25.626;2022-08-01T00:30:42;3.55;;;2.83;;
11604;SDS011;5858;43.076;25.626;2022-08-01T00:33:16;3.75;;;2.40;;
11604;SDS011;5858;43.076;25.626;2022-08-01T00:35:44;4.03;;;2.95;;
11604;SDS011;5858;43.076;25.626;2022-08-01T00:38:11;3.05;;;2.80;;
11604;SDS011;5858;43.076;25.626;2022-08-01T00:40:38;3.55;;;2.33;;
11604;SDS011;5858;43.076;25.626;2022-08-01T00:43:05;2.63;;;2.33;;
11604;SDS011;5858;43.076;25.626;2022-08-01T00:45:32;2.40;;;2.20;;
11604;SDS011;5858;43.076;25.626;2022-08-01T00:48:00;3.10;;;2.72;;
11604;SDS011;5858;43.076;25.626;2022-08-01T00:50:29;5.35;;;2.20;;
11604;SDS011;5858;43.076;25.626;2022-08-01T00:53:01;2.53;;;2.33;;
11604;SDS011;5858;43.076;25.626;2022-08-01T00:55:30;3.92;;;2.60;;
11604;SDS011;5858;43.076;25.626;2022-08-01T00:57:58;2.97;;;2.50;;
11604;SDS011;5858;43.076;25.626;2022-08-01T01:00:28;3.67;;;2.50;;
11604;SDS011;5858;43.076;25.626;2022-08-01T01:03:03;3.38;;;2.33;;
11604;SDS011;5858;43.076;25.626;2022-08-01T01:05:33;3.70;;;2.28;;
11604;SDS011;5858;43.076;25.626;2022-08-01T01:08:13;4.90;;;2.63;;
11604;SDS011;5858;43.076;25.626;2022-08-01T01:11:00;4.15;;;2.60;;
11604;SDS011;5858;43.076;25.626;2022-08-01T01:13:35;2.40;;;2.30;;
11604;SDS011;5858;43.076;25.626;2022-08-01T01:16:06;2.55;;;2.35;;
11604;SDS011;5858;43.076;25.626;2022-08-01T01:18:38;2.83;;;2.63;;
11604;SDS011;5858;43.076;25.626;2022-08-01T01:21:13;3.40;;;2.90;;
11604;SDS011;5858;43.076;25.626;2022-08-01T01:24:03;3.42;;;3.10;;
11604;SDS011;5858;43.076;25.626;2022-08-01T01:26:43;3.58;;;3.28;;
11604;SDS011;5858;43.076;25.626;2022-08-01T01:29:28;3.60;;;3.30;;
11604;SDS011;5858;43.076;25.626;2022-08-01T01:32:02;3.60;;;3.30;;
11604;SDS011;5858;43.076;25.626;2022-08-01T01:34:32;5.70;;;3.97;;
11604;SDS011;5858;43.076;25.626;2022-08-01T01:37:04;4.90;;;4.10;;
11604;SDS011;5858;43.076;25.626;2022-08-01T01:39:35;5.00;;;3.40;;
11604;SDS011;5858;43.076;25.626;2022-08-01T01:42:08;7.18;;;4.43;;
11604;SDS011;5858;43.076;25.626;2022-08-01T01:44:37;4.57;;;4.00;;
11604;SDS011;5858;43.076;25.626;2022-08-01T01:47:09;4.95;;;3.30;;
11604;SDS011;5858;43.076;25.626;2022-08-01T01:49:38;4.53;;;3.10;;
11604;SDS011;5858;43.076;25.626;2022-08-01T01:52:07;5.97;;;2.55;;
11604;SDS011;5858;43.076;25.626;2022-08-01T01:54:40;3.88;;;2.83;;
11604;SDS011;5858;43.076;25.626;2022-08-01T01:57:10;7.53;;;3.05;;
11604;SDS011;5858;43.076;25.626;2022-08-01T01:59:40;3.13;;;2.65;;
11604;SDS011;5858;43.076;25.626;2022-08-01T02:02:11;6.85;;;2.63;;
11604;SDS011;5858;43.076;25.626;2022-08-01T02:04:49;3.55;;;2.70;;
11604;SDS011;5858;43.076;25.626;2022-08-01T02:07:32;3.05;;;2.75;;
11604;SDS011;5858;43.076;25.626;2022-08-01T02:10:02;2.40;;;2.20;;
11604;SDS011;5858;43.076;25.626;2022-08-01T02:12:31;2.22;;;2.13;;
11604;SDS011;5858;43.076;25.626;2022-08-01T02:15:04;2.00;;;1.90;;
11604;SDS011;5858;43.076;25.626;2022-08-01T02:17:44;3.05;;;2.20;;
11604;SDS011;5858;43.076;25.626;2022-08-01T02:20:17;3.47;;;2.05;;
11604;SDS011;5858;43.076;25.626;2022-08-01T02:22:46;2.00;;;1.90;;
11604;SDS011;5858;43.076;25.626;2022-08-01T02:25:19;4.18;;;2.15;;
11604;SDS011;5858;43.076;25.626;2022-08-01T02:27:52;2.30;;;2.10;;
11604;SDS011;5858;43.076;25.626;2022-08-01T02:30:27;3.85;;;2.20;;
11604;SDS011;5858;43.076;25.626;2022-08-01T02:32:59;2.55;;;2.13;;
11604;SDS011;5858;43.076;25.626;2022-08-01T02:35:31;4.20;;;2.35;;
11604;SDS011;5858;43.076;25.626;2022-08-01T02:38:04;2.88;;;2.08;;
11604;SDS011;5858;43.076;25.626;2022-08-01T02:40:33;2.63;;;2.38;;
11604;SDS011;5858;43.076;25.626;2022-08-01T02:43:03;3.92;;;2.03;;
11604;SDS011;5858;43.076;25.626;2022-08-01T02:45:39;2.40;;;2.20;;
11604;SDS011;5858;43.076;25.626;2022-08-01T02:48:11;2.67;;;2.47;;
11604;SDS011;5858;43.076;25.626;2022-08-01T02:50:44;3.28;;;2.42;;
11604;SDS011;5858;43.076;25.626;2022-08-01T02:53:16;3.10;;;2.38;;
11604;SDS011;5858;43.076;25.626;2022-08-01T02:55:46;2.95;;;2.40;;
11604;SDS011;5858;43.076;25.626;2022-08-01T02:58:14;6.70;;;2.63;;
11604;SDS011;5858;43.076;25.626;2022-08-01T03:00:44;2.40;;;2.20;;
11604;SDS011;5858;43.076;25.626;2022-08-01T03:03:13;2.88;;;2.67;;
11604;SDS011;5858;43.076;25.626;2022-08-01T03:05:42;3.40;;;2.53;;
11604;SDS011;5858;43.076;25.626;2022-08-01T03:08:12;4.22;;;2.55;;
11604;SDS011;5858;43.076;25.626;2022-08-01T03:10:42;3.90;;;2.90;;
11604;SDS011;5858;43.076;25.626;2022-08-01T03:13:13;3.72;;;2.70;;
11604;SDS011;5858;43.076;25.626;2022-08-01T03:15:45;3.10;;;2.67;;
11604;SDS011;5858;43.076;25.626;2022-08-01T03:18:23;3.33;;;2.40;;
11604;SDS011;5858;43.076;25.626;2022-08-01T03:20:52;5.00;;;2.75;;
11604;SDS011;5858;43.076;25.626;2022-08-01T03:23:28;4.88;;;3.38;;
11604;SDS011;5858;43.076;25.626;2022-08-01T03:25:58;2.80;;;2.13;;
11604;SDS011;5858;43.076;25.626;2022-08-01T03:28:31;7.20;;;3.50;;
11604;SDS011;5858;43.076;25.626;2022-08-01T03:31:06;3.83;;;2.90;;
11604;SDS011;5858;43.076;25.626;2022-08-01T03:33:34;6.85;;;3.22;;
11604;SDS011;5858;43.076;25.626;2022-08-01T03:36:01;5.32;;;2.97;;
11604;SDS011;5858;43.076;25.626;2022-08-01T03:38:31;4.18;;;2.63;;
11604;SDS011;5858;43.076;25.626;2022-08-01T03:41:05;2.50;;;2.30;;
11604;SDS011;5858;43.076;25.626;2022-08-01T03:43:37;3.08;;;2.53;;
11604;SDS011;5858;43.076;25.626;2022-08-01T03:46:12;4.35;;;2.50;;
11604;SDS011;5858;43.076;25.626;2022-08-01T03:48:47;3.33;;;2.55;;
11604;SDS011;5858;43.076;25.626;2022-08-01T03:51:17;2.50;;;2.22;;
11604;SDS011;5858;43.076;25.626;2022-08-01T03:53:48;4.38;;;2.70;;
11604;SDS011;5858;43.076;25.626;2022-08-01T03:56:18;2.80;;;2.20;;
11604;SDS011;5858;43.076;25.626;2022-08-01T03:58:49;4.30;;;2.33;;
11604;SDS011;5858;43.076;25.626;2022-08-01T04:01:22;2.45;;;2.20;;
11604;SDS011;5858;43.076;25.626;2022-08-01T04:03:55;3.72;;;1.88;;
11604;SDS011;5858;43.076;25.626;2022-08-01T04:06:27;3.13;;;2.35;;
11604;SDS011;5858;43.076;25.626;2022-08-01T04:08:57;4.30;;;3.53;;
11604;SDS011;5858;43.076;25.626;2022-08-01T04:11:33;4.80;;;3.50;;
11604;SDS011;5858;43.076;25.626;2022-08-01T04:16:47;4.57;;;3.42;;
11604;SDS011;5858;43.076;25.626;2022-08-01T04:19:18;4.15;;;3.28;;
11604;SDS011;5858;43.076;25.626;2022-08-01T04:21:49;3.88;;;3.42;;
11604;SDS011;5858;43.076;25.626;2022-08-01T04:24:20;5.10;;;3.30;;
11604;SDS011;5858;43.076;25.626;2022-08-01T04:26:53;4.47;;;3.63;;
11604;SDS011;5858;43.076;25.626;2022-08-01T04:29:21;5.28;;;4.20;;
11604;SDS011;5858;43.076;25.626;2022-08-01T04:31:58;6.72;;;3.38;;
11604;SDS011;5858;43.076;25.626;2022-08-01T04:34:28;13.02;;;3.60;;
11604;SDS011;5858;43.076;25.626;2022-08-01T04:37:01;5.25;;;3.63;;
11604;SDS011;5858;43.076;25.626;2022-08-01T04:39:31;5.03;;;3.10;;
11604;SDS011;5858;43.076;25.626;2022-08-01T04:42:03;4.13;;;2.17;;
11604;SDS011;5858;43.076;25.626;2022-08-01T04:44:36;3.40;;;1.58;;
11604;SDS011;5858;43.076;25.626;2022-08-01T04:47:20;3.33;;;2.03;;
11604;SDS011;5858;43.076;25.626;2022-08-01T04:49:54;3.47;;;1.60;;
11604;SDS011;5858;43.076;25.626;2022-08-01T04:52:37;2.08;;;1.80;;
11604;SDS011;5858;43.076;25.626;2022-08-01T04:55:19;2.78;;;1.90;;
11604;SDS011;5858;43.076;25.626;2022-08-01T04:58:06;5.35;;;1.60;;
11604;SDS011;5858;43.076;25.626;2022-08-01T05:00:43;2.67;;;1.85;;
11604;SDS011;5858;43.076;25.626;2022-08-01T05:06:23;4.15;;;2.10;;
11604;SDS011;5858;43.076;25.626;2022-08-01T05:09:57;3.90;;;2.00;;
11604;SDS011;5858;43.076;25.626;2022-08-01T05:12:06;5.25;;;1.63;;
11604;SDS011;5858;43.076;25.626;2022-08-01T05:14:38;2.80;;;1.60;;
11604;SDS011;5858;43.076;25.626;2022-08-01T05:17:47;1.90;;;1.73;;
11604;SDS011;5858;43.076;25.626;2022-08-01T05:20:15;3.40;;;1.42;;
11604;SDS011;5858;43.076;25.626;2022-08-01T05:22:47;2.53;;;1.70;;
11604;SDS011;5858;43.076;25.626;2022-08-01T05:25:17;2.03;;;1.77;;
11604;SDS011;5858;43.076;25.626;2022-08-01T05:27:48;1.63;;;1.27;;
11604;SDS011;5858;43.076;25.626;2022-08-01T05:30:15;2.33;;;1.50;;
11604;SDS011;5858;43.076;25.626;2022-08-01T05:32:45;2.55;;;1.42;;
11604;SDS011;5858;43.076;25.626;2022-08-01T05:35:17;4.60;;;1.60;;
11604;SDS011;5858;43.076;25.626;2022-08-01T05:37:44;3.22;;;1.85;;
11604;SDS011;5858;43.076;25.626;2022-08-01T05:40:11;2.80;;;1.70;;
11604;SDS011;5858;43.076;25.626;2022-08-01T05:42:38;2.55;;;1.70;;
11604;SDS011;5858;43.076;25.626;2022-08-01T05:45:05;5.88;;;2.03;;
11604;SDS011;5858;43.076;25.626;2022-08-01T05:47:35;2.22;;;1.80;;
11604;SDS011;5858;43.076;25.626;2022-08-01T05:50:02;3.33;;;1.42;;
11604;SDS011;5858;43.076;25.626;2022-08-01T05:52:31;3.45;;;1.45;;
11604;SDS011;5858;43.076;25.626;2022-08-01T05:54:58;2.28;;;1.48;;
11604;SDS011;5858;43.076;25.626;2022-08-01T05:57:29;6.70;;;1.70;;
11604;SDS011;5858;43.076;25.626;2022-08-01T05:59:56;3.10;;;1.27;;
11604;SDS011;5858;43.076;25.626;2022-08-01T06:02:23;4.38;;;1.40;;
11604;SDS011;5858;43.076;25.626;2022-08-01T06:04:53;2.45;;;1.38;;
11604;SDS011;5858;43.076;25.626;2022-08-01T06:07:20;2.90;;;1.38;;
11604;SDS011;5858;43.076;25.626;2022-08-01T06:09:48;3.78;;;1.20;;
11604;SDS011;5858;43.076;25.626;2022-08-01T06:12:15;1.73;;;1.15;;
11604;SDS011;5858;43.076;25.626;2022-08-01T06:14:42;1.50;;;1.40;;
11604;SDS011;5858;43.076;25.626;2022-08-01T06:17:09;2.28;;;1.40;;
11604;SDS011;5858;43.076;25.626;2022-08-01T06:19:40;3.38;;;1.13;;
11604;SDS011;5858;43.076;25.626;2022-08-01T06:22:10;2.20;;;1.38;;
11604;SDS011;5858;43.076;25.626;2022-08-01T06:24:38;1.88;;;1.70;;
11604;SDS011;5858;43.076;25.626;2022-08-01T06:27:09;2.15;;;1.17;;
11604;SDS011;5858;43.076;25.626;2022-08-01T06:29:41;1.40;;;1.30;;
11604;SDS011;5858;43.076;25.626;2022-08-01T06:32:18;2.35;;;1.23;;
11604;SDS011;5858;43.076;25.626;2022-08-01T06:34:50;2.55;;;1.52;;
11604;SDS011;5858;43.076;25.626;2022-08-01T06:37:16;1.85;;;1.40;;
11604;SDS011;5858;43.076;25.626;2022-08-01T06:39:45;1.80;;;1.42;;
11604;SDS011;5858;43.076;25.626;2022-08-01T06:42:14;3.75;;;1.50;;
11604;SDS011;5858;43.076;25.626;2022-08-01T06:44:44;2.58;;;1.20;;
11604;SDS011;5858;43.076;25.626;2022-08-01T06:47:11;4.38;;;1.48;;
11604;SDS011;5858;43.076;25.626;2022-08-01T06:49:47;1.75;;;1.13;;
11604;SDS011;5858;43.076;25.626;2022-08-01T06:52:36;4.30;;;1.13;;
11604;SDS011;5858;43.076;25.626;2022-08-01T06:55:08;3.17;;;1.38;;
11604;SDS011;5858;43.076;25.626;2022-08-01T06:57:58;3.83;;;1.30;;
11604;SDS011;5858;43.076;25.626;2022-08-01T07:00:28;3.67;;;1.02;;
11604;SDS011;5858;43.076;25.626;2022-08-01T07:02:58;2.70;;;1.23;;
11604;SDS011;5858;43.076;25.626;2022-08-01T07:05:25;2.63;;;1.40;;
11604;SDS011;5858;43.076;25.626;2022-08-01T07:08:00;1.80;;;1.10;;
11604;SDS011;5858;43.076;25.626;2022-08-01T07:10:27;1.63;;;1.20;;
11604;SDS011;5858;43.076;25.626;2022-08-01T07:12:56;2.00;;;1.13;;
11604;SDS011;5858;43.076;25.626;2022-08-01T07:15:23;1.38;;;1.00;;
11604;SDS011;5858;43.076;25.626;2022-08-01T07:17:51;1.88;;;1.20;;
11604;SDS011;5858;43.076;25.626;2022-08-01T07:20:25;6.03;;;1.30;;
11604;SDS011;5858;43.076;25.626;2022-08-01T07:23:12;1.67;;;1.00;;
11604;SDS011;5858;43.076;25.626;2022-08-01T07:25:39;2.53;;;1.52;;
11604;SDS011;5858;43.076;25.626;2022-08-01T07:28:11;2.55;;;1.20;;
11604;SDS011;5858;43.076;25.626;2022-08-01T07:30:43;5.07;;;1.10;;
11604;SDS011;5858;43.076;25.626;2022-08-01T07:33:14;8.60;;;1.50;;
11604;SDS011;5858;43.076;25.626;2022-08-01T07:35:41;5.85;;;1.27;;
11604;SDS011;5858;43.076;25.626;2022-08-01T07:38:10;4.03;;;1.05;;
11604;SDS011;5858;43.076;25.626;2022-08-01T07:40:37;2.92;;;1.30;;
11604;SDS011;5858;43.076;25.626;2022-08-01T07:43:06;6.05;;;1.92;;
11604;SDS011;5858;43.076;25.626;2022-08-01T07:48:30;3.92;;;1.20;;
11604;SDS011;5858;43.076;25.626;2022-08-01T07:51:00;1.73;;;1.20;;
11604;SDS011;5858;43.076;25.626;2022-08-01T07:53:27;4.32;;;1.35;;
11604;SDS011;5858;43.076;25.626;2022-08-01T07:55:54;4.35;;;1.30;;
11604;SDS011;5858;43.076;25.626;2022-08-01T07:58:21;3.05;;;1.35;;
11604;SDS011;5858;43.076;25.626;2022-08-01T08:00:52;1.73;;;1.45;;
11604;SDS011;5858;43.076;25.626;2022-08-01T08:03:21;4.05;;;1.60;;
11604;SDS011;5858;43.076;25.626;2022-08-01T08:05:52;2.40;;;2.20;;
11604;SDS011;5858;43.076;25.626;2022-08-01T08:08:22;5.95;;;1.67;;
11604;SDS011;5858;43.076;25.626;2022-08-01T08:10:59;5.75;;;1.52;;
11604;SDS011;5858;43.076;25.626;2022-08-01T08:13:26;6.05;;;2.45;;
11604;SDS011;5858;43.076;25.626;2022-08-01T08:15:55;4.38;;;1.70;;
11604;SDS011;5858;43.076;25.626;2022-08-01T08:21:24;2.75;;;2.03;;
11604;SDS011;5858;43.076;25.626;2022-08-01T08:23:52;1.55;;;1.45;;
11604;SDS011;5858;43.076;25.626;2022-08-01T08:26:37;5.45;;;1.75;;
11604;SDS011;5858;43.076;25.626;2022-08-01T08:29:13;7.97;;;1.83;;
11604;SDS011;5858;43.076;25.626;2022-08-01T08:31:42;6.15;;;1.40;;
11604;SDS011;5858;43.076;25.626;2022-08-01T08:34:10;4.75;;;1.50;;
11604;SDS011;5858;43.076;25.626;2022-08-01T08:36:38;8.02;;;1.42;;
11604;SDS011;5858;43.076;25.626;2022-08-01T08:39:07;6.70;;;1.20;;
11604;SDS011;5858;43.076;25.626;2022-08-01T08:41:34;3.55;;;1.35;;
11604;SDS011;5858;43.076;25.626;2022-08-01T08:44:01;2.35;;;1.13;;
11604;SDS011;5858;43.076;25.626;2022-08-01T08:46:31;2.83;;;1.35;;
11604;SDS011;5858;43.076;25.626;2022-08-01T08:49:01;3.00;;;1.00;;
11604;SDS011;5858;43.076;25.626;2022-08-01T08:51:30;1.90;;;1.38;;
11604;SDS011;5858;43.076;25.626;2022-08-01T08:54:13;3.53;;;1.60;;
11604;SDS011;5858;43.076;25.626;2022-08-01T08:57:01;2.67;;;1.20;;
11604;SDS011;5858;43.076;25.626;2022-08-01T08:59:32;2.83;;;1.48;;
11604;SDS011;5858;43.076;25.626;2022-08-01T09:02:07;6.50;;;1.80;;
11604;SDS011;5858;43.076;25.626;2022-08-01T09:04:40;1.85;;;1.40;;
11604;SDS011;5858;43.076;25.626;2022-08-01T09:07:08;2.25;;;1.20;;
11604;SDS011;5858;43.076;25.626;2022-08-01T09:09:36;1.42;;;1.00;;
11604;SDS011;5858;43.076;25.626;2022-08-01T09:12:04;4.95;;;1.40;;
11604;SDS011;5858;43.076;25.626;2022-08-01T09:14:45;2.08;;;1.02;;
11604;SDS011;5858;43.076;25.626;2022-08-01T09:17:18;4.72;;;1.52;;
11604;SDS011;5858;43.076;25.626;2022-08-01T09:19:48;1.50;;;1.05;;
11604;SDS011;5858;43.076;25.626;2022-08-01T09:22:21;2.30;;;1.23;;
11604;SDS011;5858;43.076;25.626;2022-08-01T09:24:56;3.67;;;1.25;;
11604;SDS011;5858;43.076;25.626;2022-08-01T09:27:25;1.50;;;1.40;;
11604;SDS011;5858;43.076;25.626;2022-08-01T09:30:06;2.00;;;1.10;;
11604;SDS011;5858;43.076;25.626;2022-08-01T09:32:54;2.05;;;1.10;;
11604;SDS011;5858;43.076;25.626;2022-08-01T09:35:31;6.68;;;1.77;;
11604;SDS011;5858;43.076;25.626;2022-08-01T09:38:15;13.10;;;1.38;;
11604;SDS011;5858;43.076;25.626;2022-08-01T09:40:46;1.25;;;0.90;;
11604;SDS011;5858;43.076;25.626;2022-08-01T09:43:15;3.00;;;0.85;;
11604;SDS011;5858;43.076;25.626;2022-08-01T09:45:43;3.40;;;1.55;;
11604;SDS011;5858;43.076;25.626;2022-08-01T09:48:13;4.05;;;1.40;;
11604;SDS011;5858;43.076;25.626;2022-08-01T09:50:43;2.40;;;1.30;;
11604;SDS011;5858;43.076;25.626;2022-08-01T09:53:11;1.42;;;1.30;;
11604;SDS011;5858;43.076;25.626;2022-08-01T09:55:45;1.63;;;1.30;;
11604;SDS011;5858;43.076;25.626;2022-08-01T09:58:21;1.10;;;1.02;;
11604;SDS011;5858;43.076;25.626;2022-08-01T10:00:57;3.78;;;1.20;;
11604;SDS011;5858;43.076;25.626;2022-08-01T10:03:25;2.42;;;1.55;;
11604;SDS011;5858;43.076;25.626;2022-08-01T10:05:57;2.10;;;1.13;;
11604;SDS011;5858;43.076;25.626;2022-08-01T10:08:27;1.85;;;1.00;;
11604;SDS011;5858;43.076;25.626;2022-08-01T10:11:07;2.58;;;1.02;;
11604;SDS011;5858;43.076;25.626;2022-08-01T10:13:41;0.95;;;0.93;;
11604;SDS011;5858;43.076;25.626;2022-08-01T10:16:17;1.67;;;1.10;;
11604;SDS011;5858;43.076;25.626;2022-08-01T10:18:46;3.97;;;1.52;;
11604;SDS011;5858;43.076;25.626;2022-08-01T10:21:15;2.83;;;0.93;;
11604;SDS011;5858;43.076;25.626;2022-08-01T10:23:42;1.60;;;0.80;;
11604;SDS011;5858;43.076;25.626;2022-08-01T10:26:11;1.35;;;0.80;;
11604;SDS011;5858;43.076;25.626;2022-08-01T10:28:40;1.55;;;0.80;;
11604;SDS011;5858;43.076;25.626;2022-08-01T10:31:09;0.65;;;0.65;;
11604;SDS011;5858;43.076;25.626;2022-08-01T10:33:47;2.03;;;0.60;;
11604;SDS011;5858;43.076;25.626;2022-08-01T10:36:33;0.88;;;0.77;;
11604;SDS011;5858;43.076;25.626;2022-08-01T10:39:03;3.83;;;1.00;;
11604;SDS011;5858;43.076;25.626;2022-08-01T10:41:38;6.05;;;0.88;;
11604;SDS011;5858;43.076;25.626;2022-08-01T10:44:06;0.77;;;0.60;;
11604;SDS011;5858;43.076;25.626;2022-08-01T10:46:34;5.35;;;0.80;;
11604;SDS011;5858;43.076;25.626;2022-08-01T10:49:10;2.08;;;0.80;;
11604;SDS011;5858;43.076;25.626;2022-08-01T10:51:42;2.05;;;0.70;;
11604;SDS011;5858;43.076;25.626;2022-08-01T10:54:10;3.33;;;1.05;;
11604;SDS011;5858;43.076;25.626;2022-08-01T10:56:50;0.80;;;0.60;;
11604;SDS011;5858;43.076;25.626;2022-08-01T10:59:22;1.25;;;0.90;;
11604;SDS011;5858;43.076;25.626;2022-08-01T11:02:05;3.53;;;0.90;;
11604;SDS011;5858;43.076;25.626;2022-08-01T11:04:42;1.67;;;1.00;;
11604;SDS011;5858;43.076;25.626;2022-08-01T11:07:23;2.17;;;0.77;;
11604;SDS011;5858;43.076;25.626;2022-08-01T11:10:04;1.10;;;0.80;;
11604;SDS011;5858;43.076;25.626;2022-08-01T11:12:38;1.48;;;0.90;;
11604;SDS011;5858;43.076;25.626;2022-08-01T11:15:21;2.70;;;1.40;;
11604;SDS011;5858;43.076;25.626;2022-08-01T11:17:54;2.72;;;0.80;;
11604;SDS011;5858;43.076;25.626;2022-08-01T11:20:55;2.15;;;0.90;;
11604;SDS011;5858;43.076;25.626;2022-08-01T11:23:36;3.80;;;1.10;;
11604;SDS011;5858;43.076;25.626;2022-08-01T11:26:20;7.43;;;1.02;;
11604;SDS011;5858;43.076;25.626;2022-08-01T11:31:38;3.78;;;1.10;;
11604;SDS011;5858;43.076;25.626;2022-08-01T11:34:05;1.63;;;0.80;;
11604;SDS011;5858;43.076;25.626;2022-08-01T11:36:34;2.30;;;1.40;;
11604;SDS011;5858;43.076;25.626;2022-08-01T11:39:13;3.75;;;0.93;;
11604;SDS011;5858;43.076;25.626;2022-08-01T11:41:45;3.25;;;1.00;;
11604;SDS011;5858;43.076;25.626;2022-08-01T11:44:24;1.25;;;0.90;;
11604;SDS011;5858;43.076;25.626;2022-08-01T11:46:59;0.90;;;0.70;;
11604;SDS011;5858;43.076;25.626;2022-08-01T11:49:43;2.78;;;0.82;;
11604;SDS011;5858;43.076;25.626;2022-08-01T11:52:17;1.35;;;0.70;;
11604;SDS011;5858;43.076;25.626;2022-08-01T11:54:49;2.45;;;1.02;;
11604;SDS011;5858;43.076;25.626;2022-08-01T11:57:18;2.30;;;0.73;;
11604;SDS011;5858;43.076;25.626;2022-08-01T12:02:37;0.95;;;0.70;;
11604;SDS011;5858;43.076;25.626;2022-08-01T12:05:16;3.30;;;0.80;;
11604;SDS011;5858;43.076;25.626;2022-08-01T12:07:49;1.75;;;0.80;;
11604;SDS011;5858;43.076;25.626;2022-08-01T12:10:39;1.52;;;1.23;;
11604;SDS011;5858;43.076;25.626;2022-08-01T12:13:21;1.10;;;1.00;;
11604;SDS011;5858;43.076;25.626;2022-08-01T12:15:48;4.15;;;1.48;;
11604;SDS011;5858;43.076;25.626;2022-08-01T12:18:38;0.95;;;0.90;;
11604;SDS011;5858;43.076;25.626;2022-08-01T12:21:26;1.45;;;0.80;;
11604;SDS011;5858;43.076;25.626;2022-08-01T12:24:02;1.13;;;0.80;;
11604;SDS011;5858;43.076;25.626;2022-08-01T12:27:03;5.43;;;1.15;;
11604;SDS011;5858;43.076;25.626;2022-08-01T12:29:39;1.40;;;0.90;;
11604;SDS011;5858;43.076;25.626;2022-08-01T12:32:21;3.33;;;0.98;;
11604;SDS011;5858;43.076;25.626;2022-08-01T12:34:56;1.10;;;1.00;;
11604;SDS011;5858;43.076;25.626;2022-08-01T12:37:38;1.85;;;0.75;;
11604;SDS011;5858;43.076;25.626;2022-08-01T12:40:11;3.05;;;1.20;;
11604;SDS011;5858;43.076;25.626;2022-08-01T12:42:41;1.98;;;0.80;;
11604;SDS011;5858;43.076;25.626;2022-08-01T12:45:11;3.55;;;1.00;;
11604;SDS011;5858;43.076;25.626;2022-08-01T12:47:46;1.48;;;1.05;;
11604;SDS011;5858;43.076;25.626;2022-08-01T12:53:27;2.95;;;1.15;;
11604;SDS011;5858;43.076;25.626;2022-08-01T12:55:55;1.25;;;1.10;;
11604;SDS011;5858;43.076;25.626;2022-08-01T13:01:37;1.30;;;1.20;;
11604;SDS011;5858;43.076;25.626;2022-08-01T13:04:05;2.40;;;1.17;;
11604;SDS011;5858;43.076;25.626;2022-08-01T13:06:51;3.47;;;1.20;;
11604;SDS011;5858;43.076;25.626;2022-08-01T13:09:52;1.75;;;1.30;;
11604;SDS011;5858;43.076;25.626;2022-08-01T13:12:23;3.42;;;1.20;;
11604;SDS011;5858;43.076;25.626;2022-08-01T13:14:53;4.80;;;1.00;;
11604;SDS011;5858;43.076;25.626;2022-08-01T13:18:52;1.38;;;1.15;;
11604;SDS011;5858;43.076;25.626;2022-08-01T13:24:22;2.00;;;1.48;;
11604;SDS011;5858;43.076;25.626;2022-08-01T13:33:58;1.35;;;1.25;;
11604;SDS011;5858;43.076;25.626;2022-08-01T13:37:23;2.72;;;1.30;;
11604;SDS011;5858;43.076;25.626;2022-08-01T13:40:08;3.25;;;1.40;;
11604;SDS011;5858;43.076;25.626;2022-08-01T13:42:45;2.85;;;1.30;;
11604;SDS011;5858;43.076;25.626;2022-08-01T13:45:13;1.27;;;1.17;;
11604;SDS011;5858;43.076;25.626;2022-08-01T13:47:45;1.00;;;1.00;;
11604;SDS011;5858;43.076;25.626;2022-08-01T13:50:13;1.30;;;1.20;;
11604;SDS011;5858;43.076;25.626;2022-08-01T13:52:54;4.32;;;1.20;;
11604;SDS011;5858;43.076;25.626;2022-08-01T13:55:23;3.22;;;1.25;;
11604;SDS011;5858;43.076;25.626;2022-08-01T13:57:54;1.95;;;1.38;;
11604;SDS011;5858;43.076;25.626;2022-08-01T14:00:24;1.33;;;1.15;;
11604;SDS011;5858;43.076;25.626;2022-08-01T14:02:56;1.23;;;1.10;;
11604;SDS011;5858;43.076;25.626;2022-08-01T14:05:23;5.05;;;1.08;;
11604;SDS011;5858;43.076;25.626;2022-08-01T14:08:13;3.25;;;1.23;;
11604;SDS011;5858;43.076;25.626;2022-08-01T14:11:06;1.60;;;1.10;;
11604;SDS011;5858;43.076;25.626;2022-08-01T14:14:07;1.55;;;1.25;;
11604;SDS011;5858;43.076;25.626;2022-08-01T14:17:29;1.63;;;1.10;;
11604;SDS011;5858;43.076;25.626;2022-08-01T14:20:50;2.72;;;1.20;;
11604;SDS011;5858;43.076;25.626;2022-08-01T14:27:51;1.90;;;1.30;;
11604;SDS011;5858;43.076;25.626;2022-08-01T14:31:01;1.48;;;1.15;;
11604;SDS011;5858;43.076;25.626;2022-08-01T14:57:07;1.88;;;0.90;;
11604;SDS011;5858;43.076;25.626;2022-08-01T15:03:28;1.05;;;0.93;;
11604;SDS011;5858;43.076;25.626;2022-08-01T15:06:02;1.80;;;1.02;;
11604;SDS011;5858;43.076;25.626;2022-08-01T15:08:39;3.70;;;1.00;;
11604;SDS011;5858;43.076;25.626;2022-08-01T15:11:07;1.23;;;1.00;;
11604;SDS011;5858;43.076;25.626;2022-08-01T15:13:34;1.38;;;1.10;;
11604;SDS011;5858;43.076;25.626;2022-08-01T15:16:01;1.35;;;1.00;;
11604;SDS011;5858;43.076;25.626;2022-08-01T15:18:29;1.60;;;1.02;;
11604;SDS011;5858;43.076;25.626;2022-08-01T15:20:56;1.58;;;1.00;;
11604;SDS011;5858;43.076;25.626;2022-08-01T15:23:26;1.27;;;0.85;;
11604;SDS011;5858;43.076;25.626;2022-08-01T15:25:55;0.93;;;0.93;;
11604;SDS011;5858;43.076;25.626;2022-08-01T15:28:24;1.33;;;1.23;;
11604;SDS011;5858;43.076;25.626;2022-08-01T15:30:51;1.63;;;0.90;;
11604;SDS011;5858;43.076;25.626;2022-08-01T15:33:18;2.17;;;0.77;;
11604;SDS011;5858;43.076;25.626;2022-08-01T15:35:46;1.25;;;0.90;;
11604;SDS011;5858;43.076;25.626;2022-08-01T15:38:13;1.65;;;1.00;;
11604;SDS011;5858;43.076;25.626;2022-08-01T15:40:40;1.63;;;0.88;;
11604;SDS011;5858;43.076;25.626;2022-08-01T15:43:14;0.80;;;0.80;;
11604;SDS011;5858;43.076;25.626;2022-08-01T15:45:43;1.10;;;1.00;;
11604;SDS011;5858;43.076;25.626;2022-08-01T15:48:10;2.17;;;0.80;;
11604;SDS011;5858;43.076;25.626;2022-08-01T15:50:37;4.63;;;1.13;;
11604;SDS011;5858;43.076;25.626;2022-08-01T15:53:04;1.35;;;1.10;;
11604;SDS011;5858;43.076;25.626;2022-08-01T15:55:31;1.73;;;0.85;;
11604;SDS011;5858;43.076;25.626;2022-08-01T15:58:00;2.08;;;1.00;;
11604;SDS011;5858;43.076;25.626;2022-08-01T16:00:28;1.70;;;0.85;;
11604;SDS011;5858;43.076;25.626;2022-08-01T16:02:57;1.08;;;0.98;;
11604;SDS011;5858;43.076;25.626;2022-08-01T16:05:27;0.95;;;0.80;;
11604;SDS011;5858;43.076;25.626;2022-08-01T16:07:54;2.00;;;1.00;;
11604;SDS011;5858;43.076;25.626;2022-08-01T16:10:21;2.65;;;1.17;;
11604;SDS011;5858;43.076;25.626;2022-08-01T16:12:48;1.15;;;1.05;;
11604;SDS011;5858;43.076;25.626;2022-08-01T16:15:15;1.75;;;1.20;;
11604;SDS011;5858;43.076;25.626;2022-08-01T16:17:42;3.10;;;0.98;;
11604;SDS011;5858;43.076;25.626;2022-08-01T16:20:11;1.42;;;0.70;;
11604;SDS011;5858;43.076;25.626;2022-08-01T16:22:38;0.93;;;0.90;;
11604;SDS011;5858;43.076;25.626;2022-08-01T16:25:05;2.20;;;0.70;;
11604;SDS011;5858;43.076;25.626;2022-08-01T16:27:32;1.40;;;0.82;;
11604;SDS011;5858;43.076;25.626;2022-08-01T16:29:59;0.77;;;0.77;;